LECO/LCG METAR and TAF weather

Enter ICAO airport designator
Station Type Date Time Source
LECO METAR 2019/02/16 07:00 UTC NOAA

LECO 160700Z 18005KT CAVOK 05/04 Q1023 NOSIG


Station Type Date Time Source
LECO Decoded METAR 2019/02/16 07:00 UTC NOAA

La Coruna / Alvedro, Spain (LECO) 43-18N 008-23W 103M
Feb 16, 2019 - 02:00 AM EST / 2019.02.16 0700 UTC
Wind: from the S (180 degrees) at 6 MPH (5 KT):0
Visibility: greater than 7 mile(s):0
Temperature: 41 F (5 C)
Dew Point: 39 F (4 C)
Relative Humidity: 93%
Pressure (altimeter): 30.21 in. Hg (1023 hPa)
ob: LECO 160700Z 18005KT CAVOK 05/04 Q1023 NOSIG
cycle: 7

Station Type Date Time Source
LECO TAF 2019/02/16 05:53 UTC NOAA

TAF
AMD LECO 160545Z 1605/1703 18005KT CAVOK TX20/1614Z TN06/1606Z PROB30
TEMPO 1605/1607 4000 BR


Example: see airport list